sensor_id;sensor_type;location;lat;lon;timestamp;P1;durP1;ratioP1;P2;durP2;ratioP2
28431;SDS011;15664;51.302;7.744;2023-02-19T00:01:05;21.83;;;7.57;;
28431;SDS011;15664;51.302;7.744;2023-02-19T00:03:39;24.13;;;7.93;;
28431;SDS011;15664;51.302;7.744;2023-02-19T00:06:05;23.85;;;8.73;;
28431;SDS011;15664;51.302;7.744;2023-02-19T00:08:33;23.83;;;8.68;;
28431;SDS011;15664;51.302;7.744;2023-02-19T00:11:04;22.47;;;7.33;;
28431;SDS011;15664;51.302;7.744;2023-02-19T00:13:34;17.33;;;5.45;;
28431;SDS011;15664;51.302;7.744;2023-02-19T00:16:08;17.83;;;5.70;;
28431;SDS011;15664;51.302;7.744;2023-02-19T00:18:36;26.08;;;7.53;;
28431;SDS011;15664;51.302;7.744;2023-02-19T00:21:02;23.03;;;6.57;;
28431;SDS011;15664;51.302;7.744;2023-02-19T00:23:28;16.80;;;5.10;;
28431;SDS011;15664;51.302;7.744;2023-02-19T00:25:54;18.10;;;7.40;;
28431;SDS011;15664;51.302;7.744;2023-02-19T00:28:20;14.93;;;5.15;;
28431;SDS011;15664;51.302;7.744;2023-02-19T00:30:45;18.58;;;6.80;;
28431;SDS011;15664;51.302;7.744;2023-02-19T00:33:11;22.53;;;7.10;;
28431;SDS011;15664;51.302;7.744;2023-02-19T00:35:36;15.60;;;5.80;;
28431;SDS011;15664;51.302;7.744;2023-02-19T00:38:02;12.25;;;5.15;;
28431;SDS011;15664;51.302;7.744;2023-02-19T00:40:29;20.25;;;6.45;;
28431;SDS011;15664;51.302;7.744;2023-02-19T00:42:55;15.67;;;5.70;;
28431;SDS011;15664;51.302;7.744;2023-02-19T00:45:20;19.10;;;5.57;;
28431;SDS011;15664;51.302;7.744;2023-02-19T00:47:46;13.75;;;4.82;;
28431;SDS011;15664;51.302;7.744;2023-02-19T00:50:12;16.73;;;5.17;;
28431;SDS011;15664;51.302;7.744;2023-02-19T00:52:37;18.05;;;5.68;;
28431;SDS011;15664;51.302;7.744;2023-02-19T00:55:03;12.70;;;4.67;;
28431;SDS011;15664;51.302;7.744;2023-02-19T00:57:29;19.73;;;6.05;;
28431;SDS011;15664;51.302;7.744;2023-02-19T00:59:54;16.83;;;5.40;;
28431;SDS011;15664;51.302;7.744;2023-02-19T01:02:20;14.33;;;5.87;;
28431;SDS011;15664;51.302;7.744;2023-02-19T01:04:45;12.57;;;4.20;;
28431;SDS011;15664;51.302;7.744;2023-02-19T01:07:10;12.10;;;4.07;;
28431;SDS011;15664;51.302;7.744;2023-02-19T01:09:36;13.77;;;3.88;;
28431;SDS011;15664;51.302;7.744;2023-02-19T01:12:04;12.07;;;4.80;;
28431;SDS011;15664;51.302;7.744;2023-02-19T01:14:30;10.60;;;3.90;;
28431;SDS011;15664;51.302;7.744;2023-02-19T01:16:56;12.20;;;4.17;;
28431;SDS011;15664;51.302;7.744;2023-02-19T01:19:22;11.32;;;4.13;;
28431;SDS011;15664;51.302;7.744;2023-02-19T01:21:47;8.95;;;3.10;;
28431;SDS011;15664;51.302;7.744;2023-02-19T01:24:13;13.60;;;4.40;;
28431;SDS011;15664;51.302;7.744;2023-02-19T01:26:39;16.92;;;4.78;;
28431;SDS011;15664;51.302;7.744;2023-02-19T01:29:05;11.10;;;4.43;;
28431;SDS011;15664;51.302;7.744;2023-02-19T01:31:30;12.30;;;4.37;;
28431;SDS011;15664;51.302;7.744;2023-02-19T01:33:57;11.97;;;3.53;;
28431;SDS011;15664;51.302;7.744;2023-02-19T01:36:24;7.18;;;2.40;;
28431;SDS011;15664;51.302;7.744;2023-02-19T01:38:50;10.43;;;3.38;;
28431;SDS011;15664;51.302;7.744;2023-02-19T01:41:17;8.77;;;2.80;;
28431;SDS011;15664;51.302;7.744;2023-02-19T01:44:05;7.03;;;2.33;;
28431;SDS011;15664;51.302;7.744;2023-02-19T01:46:35;8.85;;;3.05;;
28431;SDS011;15664;51.302;7.744;2023-02-19T01:51:50;12.52;;;4.07;;
28431;SDS011;15664;51.302;7.744;2023-02-19T01:54:20;7.25;;;3.10;;
28431;SDS011;15664;51.302;7.744;2023-02-19T01:56:48;9.27;;;3.15;;
28431;SDS011;15664;51.302;7.744;2023-02-19T01:59:14;9.13;;;3.80;;
28431;SDS011;15664;51.302;7.744;2023-02-19T02:01:42;12.80;;;3.90;;
28431;SDS011;15664;51.302;7.744;2023-02-19T02:04:07;13.27;;;3.80;;
28431;SDS011;15664;51.302;7.744;2023-02-19T02:06:58;13.52;;;5.15;;
28431;SDS011;15664;51.302;7.744;2023-02-19T02:09:27;15.88;;;4.40;;
28431;SDS011;15664;51.302;7.744;2023-02-19T02:12:13;18.05;;;4.97;;
28431;SDS011;15664;51.302;7.744;2023-02-19T02:14:44;16.47;;;5.17;;
28431;SDS011;15664;51.302;7.744;2023-02-19T02:17:15;17.10;;;6.35;;
28431;SDS011;15664;51.302;7.744;2023-02-19T02:19:56;18.80;;;6.65;;
28431;SDS011;15664;51.302;7.744;2023-02-19T02:25:21;20.88;;;7.05;;
28431;SDS011;15664;51.302;7.744;2023-02-19T02:28:04;22.73;;;6.70;;
28431;SDS011;15664;51.302;7.744;2023-02-19T02:31:05;16.83;;;5.45;;
28431;SDS011;15664;51.302;7.744;2023-02-19T02:33:36;17.27;;;5.47;;
28431;SDS011;15664;51.302;7.744;2023-02-19T02:36:11;24.30;;;6.27;;
28431;SDS011;15664;51.302;7.744;2023-02-19T02:38:43;12.27;;;4.97;;
28431;SDS011;15664;51.302;7.744;2023-02-19T02:41:11;20.83;;;5.97;;
28431;SDS011;15664;51.302;7.744;2023-02-19T02:43:38;13.52;;;4.65;;
28431;SDS011;15664;51.302;7.744;2023-02-19T02:46:04;10.50;;;3.93;;
28431;SDS011;15664;51.302;7.744;2023-02-19T02:48:37;12.40;;;4.65;;
28431;SDS011;15664;51.302;7.744;2023-02-19T02:51:24;17.42;;;5.38;;
28431;SDS011;15664;51.302;7.744;2023-02-19T02:54:04;10.32;;;3.67;;
28431;SDS011;15664;51.302;7.744;2023-02-19T02:56:53;13.13;;;4.07;;
28431;SDS011;15664;51.302;7.744;2023-02-19T02:59:22;18.75;;;5.80;;
28431;SDS011;15664;51.302;7.744;2023-02-19T03:07:36;23.83;;;7.28;;
28431;SDS011;15664;51.302;7.744;2023-02-19T03:10:08;16.53;;;5.77;;
28431;SDS011;15664;51.302;7.744;2023-02-19T03:12:38;26.90;;;8.55;;
28431;SDS011;15664;51.302;7.744;2023-02-19T03:15:26;25.58;;;9.38;;
28431;SDS011;15664;51.302;7.744;2023-02-19T03:18:12;24.83;;;10.43;;
28431;SDS011;15664;51.302;7.744;2023-02-19T03:20:57;33.28;;;11.77;;
28431;SDS011;15664;51.302;7.744;2023-02-19T03:23:25;25.87;;;8.97;;
28431;SDS011;15664;51.302;7.744;2023-02-19T03:26:15;26.35;;;7.97;;
28431;SDS011;15664;51.302;7.744;2023-02-19T03:28:50;32.88;;;9.35;;
28431;SDS011;15664;51.302;7.744;2023-02-19T03:31:39;22.48;;;6.43;;
28431;SDS011;15664;51.302;7.744;2023-02-19T03:34:08;23.23;;;7.50;;
28431;SDS011;15664;51.302;7.744;2023-02-19T03:36:39;27.60;;;8.47;;
28431;SDS011;15664;51.302;7.744;2023-02-19T03:39:09;25.90;;;8.45;;
28431;SDS011;15664;51.302;7.744;2023-02-19T03:55:25;33.58;;;11.57;;
28431;SDS011;15664;51.302;7.744;2023-02-19T03:58:05;29.92;;;11.15;;
28431;SDS011;15664;51.302;7.744;2023-02-19T04:00:41;47.90;;;22.25;;
28431;SDS011;15664;51.302;7.744;2023-02-19T04:03:28;31.07;;;10.37;;
28431;SDS011;15664;51.302;7.744;2023-02-19T04:06:10;29.52;;;9.95;;
28431;SDS011;15664;51.302;7.744;2023-02-19T04:08:58;34.42;;;15.07;;
28431;SDS011;15664;51.302;7.744;2023-02-19T04:11:27;35.53;;;11.00;;
28431;SDS011;15664;51.302;7.744;2023-02-19T04:14:06;28.55;;;11.52;;
28431;SDS011;15664;51.302;7.744;2023-02-19T04:16:37;32.57;;;10.50;;
28431;SDS011;15664;51.302;7.744;2023-02-19T04:19:10;30.33;;;11.68;;
28431;SDS011;15664;51.302;7.744;2023-02-19T04:21:38;35.40;;;11.88;;
28431;SDS011;15664;51.302;7.744;2023-02-19T04:24:08;23.50;;;7.93;;
28431;SDS011;15664;51.302;7.744;2023-02-19T04:26:37;34.13;;;10.93;;
28431;SDS011;15664;51.302;7.744;2023-02-19T04:29:04;28.73;;;10.13;;
28431;SDS011;15664;51.302;7.744;2023-02-19T04:31:30;30.80;;;10.05;;
28431;SDS011;15664;51.302;7.744;2023-02-19T04:33:59;36.90;;;12.43;;
28431;SDS011;15664;51.302;7.744;2023-02-19T04:36:26;33.35;;;12.13;;
28431;SDS011;15664;51.302;7.744;2023-02-19T04:38:51;26.85;;;8.70;;
28431;SDS011;15664;51.302;7.744;2023-02-19T04:41:17;23.30;;;8.05;;
28431;SDS011;15664;51.302;7.744;2023-02-19T04:43:42;27.93;;;9.63;;
28431;SDS011;15664;51.302;7.744;2023-02-19T04:46:08;36.20;;;11.57;;
28431;SDS011;15664;51.302;7.744;2023-02-19T04:48:33;30.63;;;10.82;;
28431;SDS011;15664;51.302;7.744;2023-02-19T04:50:59;25.20;;;8.00;;
28431;SDS011;15664;51.302;7.744;2023-02-19T04:53:29;34.38;;;11.32;;
28431;SDS011;15664;51.302;7.744;2023-02-19T04:55:55;29.10;;;9.07;;
28431;SDS011;15664;51.302;7.744;2023-02-19T04:58:21;26.97;;;9.77;;
28431;SDS011;15664;51.302;7.744;2023-02-19T05:00:50;28.25;;;9.75;;
28431;SDS011;15664;51.302;7.744;2023-02-19T05:03:16;25.75;;;8.98;;
28431;SDS011;15664;51.302;7.744;2023-02-19T05:05:41;20.97;;;8.60;;
28431;SDS011;15664;51.302;7.744;2023-02-19T05:08:06;22.67;;;8.40;;
28431;SDS011;15664;51.302;7.744;2023-02-19T05:10:32;21.25;;;7.70;;
28431;SDS011;15664;51.302;7.744;2023-02-19T05:12:58;31.30;;;10.93;;
28431;SDS011;15664;51.302;7.744;2023-02-19T05:15:23;31.30;;;8.57;;
28431;SDS011;15664;51.302;7.744;2023-02-19T05:17:49;26.52;;;9.85;;
28431;SDS011;15664;51.302;7.744;2023-02-19T05:20:15;44.37;;;12.33;;
28431;SDS011;15664;51.302;7.744;2023-02-19T05:22:41;31.70;;;10.45;;
28431;SDS011;15664;51.302;7.744;2023-02-19T05:25:06;40.47;;;13.93;;
28431;SDS011;15664;51.302;7.744;2023-02-19T05:27:32;30.03;;;10.43;;
28431;SDS011;15664;51.302;7.744;2023-02-19T05:29:57;39.50;;;11.90;;
28431;SDS011;15664;51.302;7.744;2023-02-19T05:32:22;31.57;;;10.40;;
28431;SDS011;15664;51.302;7.744;2023-02-19T05:34:49;31.00;;;10.80;;
28431;SDS011;15664;51.302;7.744;2023-02-19T05:37:15;29.30;;;10.80;;
28431;SDS011;15664;51.302;7.744;2023-02-19T05:39:40;22.23;;;7.60;;
28431;SDS011;15664;51.302;7.744;2023-02-19T05:42:06;25.70;;;9.90;;
28431;SDS011;15664;51.302;7.744;2023-02-19T05:44:31;28.40;;;10.40;;
28431;SDS011;15664;51.302;7.744;2023-02-19T05:46:57;19.53;;;6.47;;
28431;SDS011;15664;51.302;7.744;2023-02-19T05:49:22;26.20;;;11.07;;
28431;SDS011;15664;51.302;7.744;2023-02-19T05:51:50;23.50;;;8.17;;
28431;SDS011;15664;51.302;7.744;2023-02-19T05:54:16;19.70;;;7.05;;
28431;SDS011;15664;51.302;7.744;2023-02-19T05:56:41;21.07;;;7.27;;
28431;SDS011;15664;51.302;7.744;2023-02-19T05:59:17;27.90;;;9.23;;
28431;SDS011;15664;51.302;7.744;2023-02-19T06:01:45;29.90;;;8.75;;
28431;SDS011;15664;51.302;7.744;2023-02-19T06:04:12;23.25;;;9.10;;
28431;SDS011;15664;51.302;7.744;2023-02-19T06:06:38;27.20;;;12.13;;
28431;SDS011;15664;51.302;7.744;2023-02-19T06:09:05;31.13;;;10.70;;
28431;SDS011;15664;51.302;7.744;2023-02-19T06:11:31;23.63;;;7.93;;
28431;SDS011;15664;51.302;7.744;2023-02-19T06:13:56;28.93;;;8.67;;
28431;SDS011;15664;51.302;7.744;2023-02-19T06:16:22;31.42;;;10.85;;
28431;SDS011;15664;51.302;7.744;2023-02-19T06:18:47;28.20;;;9.97;;
28431;SDS011;15664;51.302;7.744;2023-02-19T06:21:14;24.08;;;9.35;;
28431;SDS011;15664;51.302;7.744;2023-02-19T06:23:41;24.57;;;8.50;;
28431;SDS011;15664;51.302;7.744;2023-02-19T06:26:11;21.52;;;8.18;;
28431;SDS011;15664;51.302;7.744;2023-02-19T06:28:38;21.60;;;8.43;;
28431;SDS011;15664;51.302;7.744;2023-02-19T06:31:05;22.85;;;7.68;;
28431;SDS011;15664;51.302;7.744;2023-02-19T06:33:31;37.57;;;11.37;;
28431;SDS011;15664;51.302;7.744;2023-02-19T06:35:58;32.35;;;9.38;;
28431;SDS011;15664;51.302;7.744;2023-02-19T06:38:25;22.67;;;7.40;;
28431;SDS011;15664;51.302;7.744;2023-02-19T06:40:51;19.35;;;6.72;;
28431;SDS011;15664;51.302;7.744;2023-02-19T06:43:17;32.73;;;10.10;;
28431;SDS011;15664;51.302;7.744;2023-02-19T06:45:42;27.07;;;8.17;;
28431;SDS011;15664;51.302;7.744;2023-02-19T06:48:08;19.52;;;7.03;;
28431;SDS011;15664;51.302;7.744;2023-02-19T06:50:33;24.93;;;7.80;;
28431;SDS011;15664;51.302;7.744;2023-02-19T06:52:59;29.93;;;9.50;;
28431;SDS011;15664;51.302;7.744;2023-02-19T06:55:25;22.50;;;7.65;;
28431;SDS011;15664;51.302;7.744;2023-02-19T06:57:51;20.33;;;7.00;;
28431;SDS011;15664;51.302;7.744;2023-02-19T07:00:16;21.75;;;7.55;;
28431;SDS011;15664;51.302;7.744;2023-02-19T07:02:42;27.35;;;8.90;;
28431;SDS011;15664;51.302;7.744;2023-02-19T07:05:07;19.17;;;6.27;;
28431;SDS011;15664;51.302;7.744;2023-02-19T07:07:33;23.60;;;8.70;;
28431;SDS011;15664;51.302;7.744;2023-02-19T07:09:59;18.57;;;6.63;;
28431;SDS011;15664;51.302;7.744;2023-02-19T07:12:24;20.07;;;6.10;;
28431;SDS011;15664;51.302;7.744;2023-02-19T07:14:49;8.10;;;3.87;;
28431;SDS011;15664;51.302;7.744;2023-02-19T07:17:15;22.17;;;7.23;;
28431;SDS011;15664;51.302;7.744;2023-02-19T07:19:40;16.98;;;6.10;;
28431;SDS011;15664;51.302;7.744;2023-02-19T07:22:05;17.80;;;7.25;;
28431;SDS011;15664;51.302;7.744;2023-02-19T07:24:31;15.88;;;6.35;;
28431;SDS011;15664;51.302;7.744;2023-02-19T07:26:56;18.47;;;6.53;;
28431;SDS011;15664;51.302;7.744;2023-02-19T07:29:21;16.70;;;6.17;;
28431;SDS011;15664;51.302;7.744;2023-02-19T07:31:47;15.77;;;4.47;;
28431;SDS011;15664;51.302;7.744;2023-02-19T07:34:13;12.67;;;5.37;;
28431;SDS011;15664;51.302;7.744;2023-02-19T07:36:38;14.67;;;5.07;;
28431;SDS011;15664;51.302;7.744;2023-02-19T07:39:04;21.48;;;6.78;;
28431;SDS011;15664;51.302;7.744;2023-02-19T07:41:29;23.10;;;7.90;;
28431;SDS011;15664;51.302;7.744;2023-02-19T07:43:56;18.13;;;7.57;;
28431;SDS011;15664;51.302;7.744;2023-02-19T07:46:22;16.57;;;5.60;;
28431;SDS011;15664;51.302;7.744;2023-02-19T07:48:48;19.92;;;6.25;;
28431;SDS011;15664;51.302;7.744;2023-02-19T07:51:15;20.40;;;7.45;;
28431;SDS011;15664;51.302;7.744;2023-02-19T07:53:43;14.63;;;6.15;;
28431;SDS011;15664;51.302;7.744;2023-02-19T07:56:10;16.70;;;5.93;;
28431;SDS011;15664;51.302;7.744;2023-02-19T07:58:37;26.98;;;6.63;;
28431;SDS011;15664;51.302;7.744;2023-02-19T08:01:06;28.13;;;8.25;;
28431;SDS011;15664;51.302;7.744;2023-02-19T08:03:37;16.03;;;5.93;;
28431;SDS011;15664;51.302;7.744;2023-02-19T08:06:03;17.70;;;6.63;;
28431;SDS011;15664;51.302;7.744;2023-02-19T08:08:29;19.35;;;6.30;;
28431;SDS011;15664;51.302;7.744;2023-02-19T08:10:58;15.47;;;5.53;;
28431;SDS011;15664;51.302;7.744;2023-02-19T08:13:47;19.23;;;6.68;;
28431;SDS011;15664;51.302;7.744;2023-02-19T08:16:13;23.75;;;7.45;;
28431;SDS011;15664;51.302;7.744;2023-02-19T08:18:42;21.60;;;7.03;;
28431;SDS011;15664;51.302;7.744;2023-02-19T08:21:09;15.95;;;5.82;;
28431;SDS011;15664;51.302;7.744;2023-02-19T08:23:36;21.73;;;6.68;;
28431;SDS011;15664;51.302;7.744;2023-02-19T08:26:02;19.77;;;6.13;;
28431;SDS011;15664;51.302;7.744;2023-02-19T08:28:28;19.70;;;6.40;;
28431;SDS011;15664;51.302;7.744;2023-02-19T08:30:57;19.03;;;6.90;;
28431;SDS011;15664;51.302;7.744;2023-02-19T08:33:25;15.98;;;6.75;;
28431;SDS011;15664;51.302;7.744;2023-02-19T08:35:51;19.83;;;7.40;;
28431;SDS011;15664;51.302;7.744;2023-02-19T08:38:17;15.27;;;5.43;;
28431;SDS011;15664;51.302;7.744;2023-02-19T08:40:42;20.17;;;7.18;;
28431;SDS011;15664;51.302;7.744;2023-02-19T08:43:11;20.70;;;6.67;;
28431;SDS011;15664;51.302;7.744;2023-02-19T08:45:39;24.60;;;7.03;;
28431;SDS011;15664;51.302;7.744;2023-02-19T08:48:06;19.88;;;7.38;;
28431;SDS011;15664;51.302;7.744;2023-02-19T08:50:32;15.30;;;5.63;;
28431;SDS011;15664;51.302;7.744;2023-02-19T08:53:19;16.73;;;5.88;;
28431;SDS011;15664;51.302;7.744;2023-02-19T08:55:45;16.13;;;6.33;;
28431;SDS011;15664;51.302;7.744;2023-02-19T08:58:10;17.13;;;6.17;;
28431;SDS011;15664;51.302;7.744;2023-02-19T09:00:36;19.77;;;7.43;;
28431;SDS011;15664;51.302;7.744;2023-02-19T09:03:01;17.02;;;5.97;;
28431;SDS011;15664;51.302;7.744;2023-02-19T09:05:27;19.90;;;6.37;;
28431;SDS011;15664;51.302;7.744;2023-02-19T09:07:52;16.53;;;6.37;;
28431;SDS011;15664;51.302;7.744;2023-02-19T09:10:18;22.88;;;7.85;;
28431;SDS011;15664;51.302;7.744;2023-02-19T09:12:44;16.60;;;6.43;;
28431;SDS011;15664;51.302;7.744;2023-02-19T09:15:09;23.03;;;7.50;;
28431;SDS011;15664;51.302;7.744;2023-02-19T09:17:35;29.45;;;9.80;;
28431;SDS011;15664;51.302;7.744;2023-02-19T09:20:00;25.70;;;9.60;;
28431;SDS011;15664;51.302;7.744;2023-02-19T09:22:26;15.47;;;6.47;;
28431;SDS011;15664;51.302;7.744;2023-02-19T09:24:51;23.37;;;7.47;;
28431;SDS011;15664;51.302;7.744;2023-02-19T09:27:17;29.05;;;9.90;;
28431;SDS011;15664;51.302;7.744;2023-02-19T09:29:44;24.50;;;7.30;;
28431;SDS011;15664;51.302;7.744;2023-02-19T09:32:10;27.45;;;9.98;;
28431;SDS011;15664;51.302;7.744;2023-02-19T09:34:36;27.92;;;11.40;;
28431;SDS011;15664;51.302;7.744;2023-02-19T09:37:03;29.83;;;10.70;;
28431;SDS011;15664;51.302;7.744;2023-02-19T09:39:29;33.60;;;11.77;;
28431;SDS011;15664;51.302;7.744;2023-02-19T09:44:41;19.20;;;6.95;;
28431;SDS011;15664;51.302;7.744;2023-02-19T09:47:19;28.88;;;10.23;;
28431;SDS011;15664;51.302;7.744;2023-02-19T09:49:48;18.55;;;6.50;;
28431;SDS011;15664;51.302;7.744;2023-02-19T09:52:26;35.30;;;11.50;;
28431;SDS011;15664;51.302;7.744;2023-02-19T09:54:57;21.03;;;8.70;;
28431;SDS011;15664;51.302;7.744;2023-02-19T09:57:27;20.08;;;8.40;;
28431;SDS011;15664;51.302;7.744;2023-02-19T09:59:56;24.60;;;9.30;;
28431;SDS011;15664;51.302;7.744;2023-02-19T10:02:43;27.27;;;9.07;;
28431;SDS011;15664;51.302;7.744;2023-02-19T10:05:10;22.00;;;7.60;;
28431;SDS011;15664;51.302;7.744;2023-02-19T10:07:45;18.85;;;6.25;;
28431;SDS011;15664;51.302;7.744;2023-02-19T10:12:47;41.10;;;9.33;;
28431;SDS011;15664;51.302;7.744;2023-02-19T10:15:16;22.02;;;7.55;;
28431;SDS011;15664;51.302;7.744;2023-02-19T10:17:47;31.77;;;10.60;;
28431;SDS011;15664;51.302;7.744;2023-02-19T10:20:16;29.53;;;10.87;;
28431;SDS011;15664;51.302;7.744;2023-02-19T10:22:44;29.17;;;9.60;;
28431;SDS011;15664;51.302;7.744;2023-02-19T10:25:13;20.33;;;7.05;;
28431;SDS011;15664;51.302;7.744;2023-02-19T10:27:40;26.08;;;8.25;;
28431;SDS011;15664;51.302;7.744;2023-02-19T10:30:07;31.30;;;7.82;;
28431;SDS011;15664;51.302;7.744;2023-02-19T10:32:56;19.08;;;8.05;;
28431;SDS011;15664;51.302;7.744;2023-02-19T10:35:27;12.87;;;5.10;;
28431;SDS011;15664;51.302;7.744;2023-02-19T10:37:54;13.77;;;5.53;;
28431;SDS011;15664;51.302;7.744;2023-02-19T10:40:22;20.48;;;7.45;;
28431;SDS011;15664;51.302;7.744;2023-02-19T10:42:55;25.90;;;7.18;;
28431;SDS011;15664;51.302;7.744;2023-02-19T10:51:14;14.95;;;5.20;;
28431;SDS011;15664;51.302;7.744;2023-02-19T10:53:46;17.05;;;6.43;;
28431;SDS011;15664;51.302;7.744;2023-02-19T10:56:14;20.20;;;7.70;;
28431;SDS011;15664;51.302;7.744;2023-02-19T10:58:46;23.67;;;8.88;;
28431;SDS011;15664;51.302;7.744;2023-02-19T11:01:22;18.00;;;7.17;;
28431;SDS011;15664;51.302;7.744;2023-02-19T11:03:50;18.27;;;7.45;;
28431;SDS011;15664;51.302;7.744;2023-02-19T11:06:18;10.70;;;4.33;;
28431;SDS011;15664;51.302;7.744;2023-02-19T11:08:47;14.25;;;6.07;;
28431;SDS011;15664;51.302;7.744;2023-02-19T11:13:58;16.95;;;6.38;;
28431;SDS011;15664;51.302;7.744;2023-02-19T11:16:36;18.55;;;6.63;;
28431;SDS011;15664;51.302;7.744;2023-02-19T11:19:04;16.47;;;6.83;;
28431;SDS011;15664;51.302;7.744;2023-02-19T11:21:30;16.55;;;5.32;;
28431;SDS011;15664;51.302;7.744;2023-02-19T11:24:00;10.88;;;4.43;;
28431;SDS011;15664;51.302;7.744;2023-02-19T11:26:29;11.60;;;4.37;;
28431;SDS011;15664;51.302;7.744;2023-02-19T11:29:00;7.68;;;3.58;;
28431;SDS011;15664;51.302;7.744;2023-02-19T11:31:35;9.30;;;3.58;;
28431;SDS011;15664;51.302;7.744;2023-02-19T11:34:02;11.05;;;4.72;;
28431;SDS011;15664;51.302;7.744;2023-02-19T11:36:33;8.40;;;3.55;;
28431;SDS011;15664;51.302;7.744;2023-02-19T11:39:23;17.13;;;5.30;;
28431;SDS011;15664;51.302;7.744;2023-02-19T11:47:38;13.48;;;5.40;;
28431;SDS011;15664;51.302;7.744;2023-02-19T11:55:45;13.77;;;5.35;;
28431;SDS011;15664;51.302;7.744;2023-02-19T11:58:29;8.68;;;3.65;;
28431;SDS011;15664;51.302;7.744;2023-02-19T12:01:14;13.93;;;5.63;;
28431;SDS011;15664;51.302;7.744;2023-02-19T12:04:06;14.50;;;5.68;;
28431;SDS011;15664;51.302;7.744;2023-02-19T12:07:00;17.97;;;6.60;;
28431;SDS011;15664;51.302;7.744;2023-02-19T12:10:02;10.85;;;4.47;;
28431;SDS011;15664;51.302;7.744;2023-02-19T12:12:36;7.65;;;3.63;;
28431;SDS011;15664;51.302;7.744;2023-02-19T12:15:42;9.48;;;3.22;;
28431;SDS011;15664;51.302;7.744;2023-02-19T12:24:13;16.55;;;6.65;;
28431;SDS011;15664;51.302;7.744;2023-02-19T12:27:03;19.80;;;6.00;;
28431;SDS011;15664;51.302;7.744;2023-02-19T12:32:11;23.63;;;8.82;;
28431;SDS011;15664;51.302;7.744;2023-02-19T12:37:27;23.00;;;7.85;;
28431;SDS011;15664;51.302;7.744;2023-02-19T12:40:21;12.95;;;5.72;;
28431;SDS011;15664;51.302;7.744;2023-02-19T12:43:16;14.98;;;6.15;;
28431;SDS011;15664;51.302;7.744;2023-02-19T12:48:47;15.70;;;6.30;;
28431;SDS011;15664;51.302;7.744;2023-02-19T12:51:32;14.43;;;5.03;;
28431;SDS011;15664;51.302;7.744;2023-02-19T12:55:02;19.92;;;6.95;;
28431;SDS011;15664;51.302;7.744;2023-02-19T12:57:23;21.13;;;8.27;;
28431;SDS011;15664;51.302;7.744;2023-02-19T13:00:08;26.73;;;9.00;;
28431;SDS011;15664;51.302;7.744;2023-02-19T13:10:50;18.30;;;6.90;;
28431;SDS011;15664;51.302;7.744;2023-02-19T13:16:02;15.83;;;6.10;;
28431;SDS011;15664;51.302;7.744;2023-02-19T13:18:36;14.45;;;5.72;;
28431;SDS011;15664;51.302;7.744;2023-02-19T13:21:06;13.85;;;5.88;;
28431;SDS011;15664;51.302;7.744;2023-02-19T13:23:36;14.60;;;5.75;;
28431;SDS011;15664;51.302;7.744;2023-02-19T13:35:22;15.63;;;5.65;;
28431;SDS011;15664;51.302;7.744;2023-02-19T13:37:52;13.27;;;4.95;;
28431;SDS011;15664;51.302;7.744;2023-02-19T13:40:26;9.93;;;3.80;;
28431;SDS011;15664;51.302;7.744;2023-02-19T13:43:00;16.00;;;5.77;;
28431;SDS011;15664;51.302;7.744;2023-02-19T13:45:38;16.25;;;6.93;;
28431;SDS011;15664;51.302;7.744;2023-02-19T14:14:43;8.32;;;3.78;;
28431;SDS011;15664;51.302;7.744;2023-02-19T14:17:36;10.55;;;4.85;;
28431;SDS011;15664;51.302;7.744;2023-02-19T14:30:51;13.80;;;6.18;;
28431;SDS011;15664;51.302;7.744;2023-02-19T14:33:18;13.05;;;6.50;;
28431;SDS011;15664;51.302;7.744;2023-02-19T14:35:47;13.37;;;6.43;;
28431;SDS011;15664;51.302;7.744;2023-02-19T14:38:22;16.48;;;6.82;;
28431;SDS011;15664;51.302;7.744;2023-02-19T14:40:49;15.18;;;6.53;;
28431;SDS011;15664;51.302;7.744;2023-02-19T14:43:17;12.93;;;6.30;;
28431;SDS011;15664;51.302;7.744;2023-02-19T14:45:46;11.52;;;5.72;;
28431;SDS011;15664;51.302;7.744;2023-02-19T14:48:23;8.93;;;4.03;;
28431;SDS011;15664;51.302;7.744;2023-02-19T14:50:55;10.77;;;3.75;;
28431;SDS011;15664;51.302;7.744;2023-02-19T14:53:25;7.40;;;3.22;;
28431;SDS011;15664;51.302;7.744;2023-02-19T14:55:54;8.15;;;3.05;;
28431;SDS011;15664;51.302;7.744;2023-02-19T14:58:28;6.60;;;3.20;;
28431;SDS011;15664;51.302;7.744;2023-02-19T15:00:56;6.50;;;2.67;;
28431;SDS011;15664;51.302;7.744;2023-02-19T15:03:29;6.40;;;2.17;;
28431;SDS011;15664;51.302;7.744;2023-02-19T15:06:15;7.45;;;2.60;;
28431;SDS011;15664;51.302;7.744;2023-02-19T15:08:47;10.00;;;3.08;;
28431;SDS011;15664;51.302;7.744;2023-02-19T15:11:20;7.13;;;2.70;;
28431;SDS011;15664;51.302;7.744;2023-02-19T15:14:21;10.57;;;3.50;;
28431;SDS011;15664;51.302;7.744;2023-02-19T15:16:47;9.45;;;3.22;;
28431;SDS011;15664;51.302;7.744;2023-02-19T15:19:18;11.65;;;4.20;;
28431;SDS011;15664;51.302;7.744;2023-02-19T15:21:45;14.17;;;4.67;;
28431;SDS011;15664;51.302;7.744;2023-02-19T15:24:13;11.38;;;3.97;;
28431;SDS011;15664;51.302;7.744;2023-02-19T15:26:42;12.83;;;4.87;;
28431;SDS011;15664;51.302;7.744;2023-02-19T15:29:15;14.55;;;5.30;;
28431;SDS011;15664;51.302;7.744;2023-02-19T15:34:16;12.05;;;4.47;;
28431;SDS011;15664;51.302;7.744;2023-02-19T15:36:44;13.95;;;4.93;;
28431;SDS011;15664;51.302;7.744;2023-02-19T15:39:11;14.30;;;4.87;;
28431;SDS011;15664;51.302;7.744;2023-02-19T15:41:43;19.35;;;6.35;;
28431;SDS011;15664;51.302;7.744;2023-02-19T15:44:13;9.00;;;3.40;;
28431;SDS011;15664;51.302;7.744;2023-02-19T15:46:56;9.93;;;4.07;;
28431;SDS011;15664;51.302;7.744;2023-02-19T15:49:26;10.55;;;4.45;;
28431;SDS011;15664;51.302;7.744;2023-02-19T15:52:07;8.83;;;3.80;;
28431;SDS011;15664;51.302;7.744;2023-02-19T15:54:46;10.25;;;3.22;;
28431;SDS011;15664;51.302;7.744;2023-02-19T15:57:20;8.73;;;3.17;;
28431;SDS011;15664;51.302;7.744;2023-02-19T15:59:52;9.30;;;3.90;;
28431;SDS011;15664;51.302;7.744;2023-02-19T16:02:23;14.27;;;4.57;;
28431;SDS011;15664;51.302;7.744;2023-02-19T16:04:49;10.77;;;3.63;;
28431;SDS011;15664;51.302;7.744;2023-02-19T16:07:28;16.47;;;6.27;;
28431;SDS011;15664;51.302;7.744;2023-02-19T16:12:40;17.85;;;6.82;;
28431;SDS011;15664;51.302;7.744;2023-02-19T16:15:12;16.90;;;6.73;;
28431;SDS011;15664;51.302;7.744;2023-02-19T16:17:41;15.17;;;6.70;;
28431;SDS011;15664;51.302;7.744;2023-02-19T16:20:25;23.52;;;8.10;;
28431;SDS011;15664;51.302;7.744;2023-02-19T16:22:56;19.05;;;7.35;;
28431;SDS011;15664;51.302;7.744;2023-02-19T16:25:27;14.68;;;6.63;;
28431;SDS011;15664;51.302;7.744;2023-02-19T16:27:56;19.02;;;7.22;;
28431;SDS011;15664;51.302;7.744;2023-02-19T16:30:26;26.37;;;8.20;;
28431;SDS011;15664;51.302;7.744;2023-02-19T16:35:57;27.67;;;10.35;;
28431;SDS011;15664;51.302;7.744;2023-02-19T16:38:40;29.70;;;10.30;;
28431;SDS011;15664;51.302;7.744;2023-02-19T16:41:09;28.00;;;10.83;;
28431;SDS011;15664;51.302;7.744;2023-02-19T16:43:37;26.98;;;8.90;;
28431;SDS011;15664;51.302;7.744;2023-02-19T16:46:06;23.23;;;8.07;;
28431;SDS011;15664;51.302;7.744;2023-02-19T16:48:34;35.08;;;12.77;;
28431;SDS011;15664;51.302;7.744;2023-02-19T16:50:59;32.58;;;10.77;;
28431;SDS011;15664;51.302;7.744;2023-02-19T16:53:26;45.83;;;16.00;;
28431;SDS011;15664;51.302;7.744;2023-02-19T16:55:53;46.25;;;17.05;;
28431;SDS011;15664;51.302;7.744;2023-02-19T16:58:19;48.42;;;15.02;;
28431;SDS011;15664;51.302;7.744;2023-02-19T17:00:45;37.45;;;13.50;;
28431;SDS011;15664;51.302;7.744;2023-02-19T17:03:14;43.87;;;14.67;;